createdAt,value
2024-01-15T00:00:57.977Z,67.32
2024-01-15T00:01:57.756Z,67.27
2024-01-15T00:02:57.757Z,68.84
2024-01-15T00:03:57.866Z,67.55
2024-01-15T00:04:57.853Z,66.76
2024-01-15T00:05:57.959Z,68.70
2024-01-15T00:06:57.961Z,68.18
2024-01-15T00:07:57.901Z,67.99
2024-01-15T00:08:57.969Z,69.20
2024-01-15T00:09:58.064Z,68.47
2024-01-15T00:10:58.072Z,67.18
2024-01-15T00:11:58.138Z,66.45
2024-01-15T00:12:58.229Z,69.59
2024-01-15T00:13:58.302Z,67.62
2024-01-15T00:14:58.447Z,68.05
2024-01-15T00:15:58.487Z,69.71
2024-01-15T00:16:58.543Z,69.10
2024-01-15T00:17:58.611Z,69.46
2024-01-15T00:18:58.657Z,68.79
2024-01-15T00:19:58.759Z,68.20
2024-01-15T00:20:58.748Z,68.56
2024-01-15T00:21:58.820Z,68.57
2024-01-15T00:22:58.869Z,68.66
2024-01-15T00:23:58.928Z,69.18
2024-01-15T00:24:58.991Z,68.78
2024-01-15T00:25:59.097Z,70.78
2024-01-15T00:26:59.167Z,69.57
2024-01-15T00:27:59.270Z,67.72
2024-01-15T00:28:59.333Z,68.68
2024-01-15T00:29:59.330Z,70.12
2024-01-15T00:30:59.541Z,69.56
2024-01-15T00:31:59.495Z,69.46
2024-01-15T00:32:59.692Z,68.53
2024-01-15T00:33:59.971Z,69.05
2024-01-15T00:34:59.721Z,68.35
2024-01-15T00:35:59.797Z,67.73
2024-01-15T00:36:59.864Z,67.88
2024-01-15T00:37:59.902Z,68.15
2024-01-15T00:38:59.961Z,69.25
2024-01-15T00:40:00.039Z,67.96
2024-01-15T00:41:00.178Z,68.23
2024-01-15T00:42:00.243Z,67.73
2024-01-15T00:43:00.206Z,68.37
2024-01-15T00:44:00.250Z,69.12
2024-01-15T00:45:00.392Z,67.38
2024-01-15T00:46:00.419Z,67.71
2024-01-15T00:47:00.552Z,67.28
2024-01-15T00:48:00.707Z,67.49
2024-01-15T00:49:00.806Z,67.74
2024-01-15T00:50:00.708Z,68.11
2024-01-15T00:51:00.766Z,68.79
2024-01-15T00:52:00.810Z,67.43
2024-01-15T00:53:00.869Z,66.97
2024-01-15T00:54:00.979Z,68.07
2024-01-15T00:55:01.046Z,67.41
2024-01-15T00:56:01.045Z,67.90
2024-01-15T00:57:01.182Z,66.80
2024-01-15T00:58:01.234Z,66.71
2024-01-15T00:59:01.280Z,66.88
2024-01-15T01:00:03.904Z,67.32
2024-01-15T01:01:01.369Z,67.37
2024-01-15T01:02:01.295Z,67.36
2024-01-15T01:03:01.401Z,67.45
2024-01-15T01:04:01.402Z,67.19
2024-01-15T01:05:01.376Z,67.06
2024-01-15T01:06:01.341Z,67.54
2024-01-15T01:07:01.293Z,67.21
2024-01-15T01:08:01.274Z,65.31
2024-01-15T01:09:01.302Z,67.17
2024-01-15T01:10:01.348Z,67.57
2024-01-15T01:11:01.301Z,67.21
2024-01-15T01:12:01.316Z,65.03
2024-01-15T01:13:01.270Z,66.87
2024-01-15T01:14:01.281Z,66.34
2024-01-15T01:15:01.643Z,66.87
2024-01-15T01:16:01.308Z,66.35
2024-01-15T01:17:01.405Z,66.59
2024-01-15T01:18:01.568Z,67.17
2024-01-15T01:19:01.696Z,66.94
2024-01-15T01:20:01.804Z,66.62
2024-01-15T01:21:01.521Z,66.73
2024-01-15T01:22:01.578Z,66.93
2024-01-15T01:23:01.642Z,66.44
2024-01-15T01:24:01.666Z,65.98
2024-01-15T01:25:01.717Z,66.07
2024-01-15T01:26:01.769Z,65.94
2024-01-15T01:27:01.777Z,65.60
2024-01-15T01:28:02.017Z,67.52
2024-01-15T01:29:01.949Z,65.91
2024-01-15T01:30:01.938Z,66.36
2024-01-15T01:31:02.112Z,65.65
2024-01-15T01:32:02.064Z,67.14
2024-01-15T01:33:02.146Z,65.91
2024-01-15T01:34:02.303Z,65.53
2024-01-15T01:35:02.266Z,64.71
2024-01-15T01:36:02.305Z,66.17
2024-01-15T01:37:02.366Z,65.64
2024-01-15T01:38:02.356Z,65.66
2024-01-15T01:39:02.429Z,66.11
2024-01-15T01:40:02.499Z,64.92
2024-01-15T01:41:02.583Z,64.47
2024-01-15T01:42:02.620Z,65.87
2024-01-15T01:43:02.662Z,65.36
2024-01-15T01:44:02.685Z,64.99
2024-01-15T01:45:02.757Z,65.43
2024-01-15T01:46:02.833Z,64.82
2024-01-15T01:47:02.808Z,65.21
2024-01-15T01:48:02.881Z,65.03
2024-01-15T01:49:02.846Z,65.40
2024-01-15T01:50:02.862Z,66.08
2024-01-15T01:51:02.994Z,65.44
2024-01-15T01:52:02.919Z,66.74
2024-01-15T01:53:02.934Z,66.24
2024-01-15T01:54:02.932Z,66.79
2024-01-15T01:55:03.010Z,66.70
2024-01-15T01:56:03.003Z,67.87
2024-01-15T01:57:03.020Z,68.45
2024-01-15T01:58:03.055Z,67.62
2024-01-15T01:59:03.061Z,66.25
2024-01-15T02:00:03.082Z,66.45
2024-01-15T02:01:03.413Z,66.16
2024-01-15T02:02:03.172Z,67.10
2024-01-15T02:03:03.184Z,67.81
2024-01-15T02:04:03.355Z,67.49
2024-01-15T02:05:03.329Z,68.02
2024-01-15T02:06:03.323Z,67.00
2024-01-15T02:07:03.364Z,68.38
2024-01-15T02:08:03.326Z,67.32
2024-01-15T02:09:03.357Z,67.01
2024-01-15T02:10:03.346Z,68.03
2024-01-15T02:11:03.426Z,67.88
2024-01-15T02:12:03.467Z,67.74
2024-01-15T02:13:03.478Z,68.20
2024-01-15T02:14:03.491Z,68.13
2024-01-15T02:15:03.567Z,67.38
2024-01-15T02:16:03.550Z,67.11
2024-01-15T02:17:03.552Z,67.97
2024-01-15T02:18:03.642Z,68.89
2024-01-15T02:19:03.716Z,68.88
2024-01-15T02:20:03.688Z,69.55
2024-01-15T02:21:04.012Z,69.39
2024-01-15T02:22:03.705Z,68.63
2024-01-15T02:23:03.741Z,70.13
2024-01-15T02:24:03.746Z,69.78
2024-01-15T02:25:03.755Z,69.61
2024-01-15T02:26:03.819Z,70.04
2024-01-15T02:27:03.775Z,69.48
2024-01-15T02:28:03.828Z,69.56
2024-01-15T02:29:03.831Z,70.05
2024-01-15T02:30:04.095Z,70.34
2024-01-15T02:31:04.050Z,69.98
2024-01-15T02:32:03.895Z,69.84
2024-01-15T02:33:03.934Z,70.14
2024-01-15T02:34:04.197Z,70.33
2024-01-15T02:35:03.937Z,69.64
2024-01-15T02:36:03.934Z,70.91
2024-01-15T02:37:03.997Z,70.65
2024-01-15T02:38:03.946Z,70.63
2024-01-15T02:39:04.046Z,69.65
2024-01-15T02:40:04.012Z,69.79
2024-01-15T02:41:04.031Z,70.54
2024-01-15T02:42:04.085Z,70.66
2024-01-15T02:43:04.044Z,70.50
2024-01-15T02:44:04.043Z,70.60
2024-01-15T02:45:04.043Z,71.03
2024-01-15T02:46:04.116Z,71.14
2024-01-15T02:47:04.133Z,70.82
2024-01-15T02:48:04.166Z,70.53
2024-01-15T02:49:04.339Z,70.96
2024-01-15T02:50:04.265Z,71.13
2024-01-15T02:51:04.185Z,70.19
2024-01-15T02:52:04.209Z,69.94
2024-01-15T02:53:04.227Z,71.47
2024-01-15T02:54:04.272Z,70.54
2024-01-15T02:55:04.271Z,70.99
2024-01-15T02:56:04.358Z,70.42
2024-01-15T02:57:04.337Z,71.15
2024-01-15T02:58:04.351Z,70.36
2024-01-15T02:59:04.342Z,70.73
2024-01-15T03:00:04.391Z,71.78
2024-01-15T03:01:04.483Z,71.04
2024-01-15T03:02:04.371Z,71.87
2024-01-15T03:03:04.546Z,72.48
2024-01-15T03:04:04.612Z,72.39
2024-01-15T03:05:04.458Z,71.27
2024-01-15T03:06:04.473Z,72.02
2024-01-15T03:07:04.394Z,71.98
2024-01-15T03:08:04.401Z,71.71
2024-01-15T03:09:04.422Z,71.14
2024-01-15T03:10:04.429Z,71.59
2024-01-15T03:11:04.438Z,70.93
2024-01-15T03:12:04.466Z,71.21
2024-01-15T03:13:04.412Z,71.73
2024-01-15T03:14:04.454Z,72.07
2024-01-15T03:15:04.498Z,71.97
2024-01-15T03:16:04.501Z,72.22
2024-01-15T03:17:04.536Z,72.28
2024-01-15T03:18:04.615Z,72.90
2024-01-15T03:19:04.628Z,72.84
2024-01-15T03:20:04.665Z,72.33
2024-01-15T03:21:04.553Z,71.86
2024-01-15T03:22:04.582Z,71.62
2024-01-15T03:23:04.585Z,72.53
2024-01-15T03:24:04.598Z,72.86
2024-01-15T03:25:04.564Z,72.61
2024-01-15T03:26:04.586Z,72.96
2024-01-15T03:27:04.593Z,72.89
2024-01-15T03:28:04.629Z,71.78
2024-01-15T03:29:04.654Z,71.16
2024-01-15T03:30:04.687Z,71.84
2024-01-15T03:31:04.743Z,72.17
2024-01-15T03:32:04.656Z,72.69
2024-01-15T03:33:04.718Z,72.24
2024-01-15T03:34:04.811Z,73.08
2024-01-15T03:35:04.789Z,73.62
2024-01-15T03:36:04.721Z,72.94
2024-01-15T03:37:04.742Z,72.96
2024-01-15T03:38:04.719Z,73.74
2024-01-15T03:39:04.785Z,72.44
2024-01-15T03:40:04.786Z,73.66
2024-01-15T03:41:04.745Z,72.43
2024-01-15T03:42:04.816Z,73.35
2024-01-15T03:43:04.764Z,74.04
2024-01-15T03:44:04.770Z,72.71
2024-01-15T03:45:04.827Z,72.57
2024-01-15T03:46:04.829Z,72.78
2024-01-15T03:47:04.838Z,73.25
2024-01-15T03:48:04.957Z,72.77
2024-01-15T03:49:04.919Z,73.02
2024-01-15T03:50:04.856Z,74.44
2024-01-15T03:51:04.866Z,73.87
2024-01-15T03:52:04.870Z,72.34
2024-01-15T03:53:04.887Z,72.71
2024-01-15T03:54:04.887Z,72.23
2024-01-15T03:55:04.921Z,72.68
2024-01-15T03:56:04.883Z,73.13
2024-01-15T03:57:04.973Z,74.21
2024-01-15T03:58:04.998Z,73.54
2024-01-15T03:59:05.557Z,71.98
2024-01-15T04:00:04.967Z,72.75
2024-01-15T04:01:05.126Z,72.59
2024-01-15T04:02:04.979Z,72.72
2024-01-15T04:03:05.149Z,72.33
2024-01-15T04:04:05.140Z,73.32
2024-01-15T04:05:05.038Z,73.08
2024-01-15T04:06:05.107Z,74.00
2024-01-15T04:07:05.099Z,72.34
2024-01-15T04:08:05.103Z,72.96
2024-01-15T04:09:05.162Z,73.96
2024-01-15T04:10:05.086Z,73.68
2024-01-15T04:11:05.090Z,73.59
2024-01-15T04:12:05.092Z,73.00
2024-01-15T04:13:05.136Z,73.75
2024-01-15T04:14:05.108Z,73.27
2024-01-15T04:15:05.133Z,73.91
2024-01-15T04:16:05.116Z,73.93
2024-01-15T04:17:12.929Z,50.00
2024-01-15T04:18:12.971Z,50.00
2024-01-15T04:19:12.965Z,50.00
2024-01-15T04:20:12.907Z,50.00
2024-01-15T04:21:12.928Z,50.00
2024-01-15T04:22:12.895Z,50.49
2024-01-15T04:23:12.926Z,50.30
2024-01-15T04:24:12.948Z,51.12
2024-01-15T04:25:52.297Z,50.00
2024-01-15T04:26:52.298Z,50.00
2024-01-15T04:27:52.353Z,50.00
2024-01-15T04:28:52.265Z,50.00
2024-01-15T04:29:52.270Z,50.00
2024-01-15T04:30:52.381Z,51.75
2024-01-15T04:32:00.196Z,50.00
2024-01-15T04:33:00.197Z,50.00
2024-01-15T04:34:00.209Z,50.00
2024-01-15T04:35:00.113Z,50.00
2024-01-15T04:36:00.104Z,50.00
2024-01-15T04:37:00.667Z,50.06
2024-01-15T04:38:00.149Z,50.56
2024-01-15T04:39:00.113Z,50.40
2024-01-15T04:40:00.286Z,50.42
2024-01-15T04:41:00.161Z,51.28
2024-01-15T04:42:00.069Z,51.07
2024-01-15T04:43:00.164Z,50.49
2024-01-15T04:44:00.143Z,51.36
2024-01-15T04:45:00.191Z,50.94
2024-01-15T04:46:00.216Z,50.64
2024-01-15T04:47:00.693Z,50.54
2024-01-15T04:48:00.190Z,50.00
2024-01-15T04:49:00.246Z,50.61
2024-01-15T04:50:00.288Z,51.34
2024-01-15T04:51:00.108Z,50.66
2024-01-15T04:52:00.163Z,50.17
2024-01-15T04:53:00.194Z,51.05
2024-01-15T04:54:00.223Z,50.95
2024-01-15T04:55:00.155Z,50.98
2024-01-15T04:56:00.243Z,50.00
2024-01-15T04:57:00.198Z,52.03
2024-01-15T04:58:00.171Z,50.60
2024-01-15T04:59:00.271Z,51.19
2024-01-15T05:00:00.181Z,50.66
2024-01-15T05:01:00.350Z,50.69
2024-01-15T05:02:00.188Z,51.73
2024-01-15T05:03:00.263Z,51.58
2024-01-15T05:04:00.649Z,50.65
2024-01-15T05:05:00.232Z,51.05
2024-01-15T05:06:00.312Z,51.10
2024-01-15T05:07:00.213Z,50.56
2024-01-15T05:08:00.189Z,51.01
2024-01-15T05:09:00.220Z,53.21
2024-01-15T05:10:00.379Z,52.26
2024-01-15T05:11:00.196Z,54.08
2024-01-15T05:12:00.280Z,53.67
2024-01-15T05:13:00.212Z,52.31
2024-01-15T05:14:00.206Z,53.12
2024-01-15T05:15:00.342Z,53.25
2024-01-15T05:16:00.337Z,52.57
2024-01-15T05:17:00.196Z,52.07
2024-01-15T05:18:00.391Z,52.07
2024-01-15T05:19:00.309Z,51.72
2024-01-15T05:20:00.698Z,50.19
2024-01-15T05:21:00.239Z,50.59
2024-01-15T05:22:00.225Z,50.66
2024-01-15T05:23:00.175Z,51.74
2024-01-15T05:24:00.229Z,51.28
2024-01-15T05:25:00.371Z,51.54
2024-01-15T05:26:00.182Z,51.34
2024-01-15T05:27:00.195Z,51.42
2024-01-15T05:28:00.209Z,51.27
2024-01-15T05:29:00.221Z,51.20
2024-01-15T05:30:00.274Z,50.74
2024-01-15T05:31:00.321Z,50.67
2024-01-15T05:32:02.574Z,51.03
2024-01-15T05:33:00.378Z,50.07
2024-01-15T05:34:00.230Z,50.32
2024-01-15T05:35:00.384Z,50.00
2024-01-15T05:36:00.267Z,50.08
2024-01-15T05:37:00.222Z,50.00
2024-01-15T05:38:00.239Z,51.11
2024-01-15T05:39:00.229Z,51.92
2024-01-15T05:40:00.501Z,51.11
2024-01-15T05:41:00.249Z,50.47
2024-01-15T05:42:00.227Z,53.89
2024-01-15T05:43:00.319Z,52.67
2024-01-15T05:44:00.246Z,52.64
2024-01-15T05:45:00.275Z,52.56
2024-01-15T05:46:00.313Z,52.82
2024-01-15T05:47:00.318Z,52.34
2024-01-15T05:48:00.406Z,50.00
2024-01-15T05:49:00.446Z,53.20
2024-01-15T05:50:00.351Z,54.29
2024-01-15T05:51:00.268Z,53.86
2024-01-15T05:52:00.252Z,53.56
2024-01-15T05:53:00.314Z,53.95
2024-01-15T05:54:00.223Z,50.93
2024-01-15T05:55:00.275Z,51.70
2024-01-15T05:56:00.235Z,51.25
2024-01-15T05:57:00.238Z,52.29
2024-01-15T05:58:00.353Z,53.27
2024-01-15T05:59:00.266Z,52.86
2024-01-15T06:00:00.430Z,52.46
2024-01-15T06:01:00.402Z,52.99
2024-01-15T06:02:00.286Z,52.34
2024-01-15T06:03:00.258Z,50.72
2024-01-15T06:04:00.496Z,53.26
2024-01-15T06:05:00.424Z,52.55
2024-01-15T06:06:00.315Z,50.00
2024-01-15T06:07:00.278Z,51.86
2024-01-15T06:08:00.340Z,53.42
2024-01-15T06:09:00.267Z,60.12
2024-01-15T06:10:00.393Z,68.83
2024-01-15T06:11:02.211Z,78.99
2024-01-15T06:12:00.293Z,86.53
2024-01-15T06:13:00.345Z,89.27
2024-01-15T06:14:00.282Z,90.86
2024-01-15T06:15:00.358Z,93.70
2024-01-15T06:16:00.463Z,94.90
2024-01-15T06:17:00.495Z,96.09
2024-01-15T06:18:00.716Z,94.09
2024-01-15T06:19:00.830Z,93.96
2024-01-15T06:20:00.678Z,92.43
2024-01-15T06:21:00.636Z,92.16
2024-01-15T06:22:01.002Z,92.55
2024-01-15T06:23:00.778Z,90.61
2024-01-15T06:24:00.836Z,89.23
2024-01-15T06:25:00.806Z,88.46
2024-01-15T06:26:00.842Z,88.16
2024-01-15T06:27:00.888Z,87.63
2024-01-15T06:28:01.017Z,88.56
2024-01-15T06:29:00.978Z,89.98
2024-01-15T06:30:01.009Z,92.14
2024-01-15T06:31:01.156Z,93.08
2024-01-15T06:32:01.138Z,93.60
2024-01-15T06:33:01.200Z,90.64
2024-01-15T06:34:01.258Z,85.72
2024-01-15T06:35:01.224Z,82.98
2024-01-15T06:36:01.232Z,79.15
2024-01-15T06:37:01.396Z,74.08
2024-01-15T06:38:01.395Z,69.15
2024-01-15T06:39:01.295Z,61.80
2024-01-15T06:40:01.468Z,61.50
2024-01-15T06:41:01.337Z,57.71
2024-01-15T06:42:01.715Z,55.78
2024-01-15T06:43:01.416Z,56.03
2024-01-15T06:44:01.390Z,59.94
2024-01-15T06:45:01.405Z,62.31
2024-01-15T06:46:04.219Z,65.11
2024-01-15T06:47:02.536Z,65.18
2024-01-15T06:48:01.568Z,65.23
2024-01-15T06:49:01.962Z,65.21
2024-01-15T06:50:02.195Z,65.00
2024-01-15T06:51:02.710Z,65.78
2024-01-15T06:52:02.335Z,65.95
2024-01-15T06:53:01.464Z,66.56
2024-01-15T06:54:01.445Z,67.59
2024-01-15T06:55:01.607Z,68.28
2024-01-15T06:56:01.732Z,68.72
2024-01-15T06:57:01.476Z,69.58
2024-01-15T06:58:01.891Z,71.35
2024-01-15T06:59:01.521Z,71.69
2024-01-15T07:00:01.562Z,74.00
2024-01-15T07:01:01.684Z,75.41
2024-01-15T07:02:01.617Z,75.17
2024-01-15T07:03:01.876Z,77.20
2024-01-15T07:04:01.698Z,78.00
2024-01-15T07:05:04.347Z,79.36
2024-01-15T07:06:01.738Z,81.54
2024-01-15T07:07:01.773Z,83.87
2024-01-15T07:08:03.297Z,84.62
2024-01-15T07:09:01.788Z,87.45
2024-01-15T07:10:02.284Z,87.66
2024-01-15T07:11:01.820Z,89.80
2024-01-15T07:12:01.784Z,90.98
2024-01-15T07:13:01.787Z,92.17
2024-01-15T07:14:02.261Z,95.00
2024-01-15T07:15:01.847Z,95.14
2024-01-15T07:16:01.840Z,96.68
2024-01-15T07:17:01.817Z,97.15
2024-01-15T07:18:02.312Z,99.14
2024-01-15T07:19:01.838Z,100.41
2024-01-15T07:20:02.427Z,101.31
2024-01-15T07:21:01.791Z,101.35
2024-01-15T07:22:01.820Z,101.70
2024-01-15T07:23:01.786Z,103.86
2024-01-15T07:24:02.118Z,104.03
2024-01-15T07:25:02.920Z,104.64
2024-01-15T07:26:03.056Z,106.60
2024-01-15T07:27:01.830Z,109.60
2024-01-15T07:28:02.253Z,107.87
2024-01-15T07:29:01.802Z,109.93
2024-01-15T07:30:02.685Z,109.42
2024-01-15T07:31:01.809Z,107.87
2024-01-15T07:32:01.855Z,119.21
2024-01-15T07:33:02.009Z,127.34
2024-01-15T07:34:02.051Z,129.57
2024-01-15T07:35:01.883Z,128.91
2024-01-15T07:36:03.633Z,131.94
2024-01-15T07:37:02.341Z,134.12
2024-01-15T07:38:01.800Z,134.87
2024-01-15T07:39:01.867Z,134.75
2024-01-15T07:40:02.362Z,138.02
2024-01-15T07:41:01.907Z,140.93
2024-01-15T07:42:02.348Z,145.38
2024-01-15T07:43:02.134Z,142.25
2024-01-15T07:44:02.143Z,142.60
2024-01-15T07:45:02.129Z,140.12
2024-01-15T07:46:02.225Z,138.57
2024-01-15T07:47:02.377Z,134.87
2024-01-15T07:48:02.346Z,133.25
2024-01-15T07:49:02.909Z,132.78
2024-01-15T07:50:05.719Z,127.62
2024-01-15T07:51:03.084Z,127.63
2024-01-15T07:52:02.517Z,124.88
2024-01-15T07:53:02.314Z,127.16
2024-01-15T07:54:02.305Z,125.89
2024-01-15T07:55:02.573Z,123.73
2024-01-15T07:56:03.562Z,120.17
2024-01-15T07:57:02.354Z,117.86
2024-01-15T07:58:11.393Z,120.58
2024-01-15T07:59:03.887Z,120.61
2024-01-15T08:00:03.124Z,117.44
2024-01-15T08:01:02.464Z,115.88
2024-01-15T08:02:02.469Z,116.99
2024-01-15T08:03:02.273Z,113.69
2024-01-15T08:04:02.899Z,112.41
2024-01-15T08:05:04.395Z,113.04
2024-01-15T08:06:02.512Z,112.44
2024-01-15T08:07:05.414Z,111.89
2024-01-15T08:08:02.310Z,112.45
2024-01-15T08:09:02.297Z,112.28
2024-01-15T08:10:03.862Z,108.86
2024-01-15T08:11:02.312Z,109.17
2024-01-15T08:12:02.298Z,108.24
2024-01-15T08:13:03.207Z,109.56
2024-01-15T08:14:02.387Z,107.26
2024-01-15T08:15:02.755Z,106.79
2024-01-15T08:16:02.321Z,107.44
2024-01-15T08:17:02.479Z,106.53
2024-01-15T08:18:06.871Z,106.27
2024-01-15T08:19:04.934Z,106.28
2024-01-15T08:20:03.227Z,106.33
2024-01-15T08:21:04.400Z,105.99
2024-01-15T08:22:02.290Z,104.16
2024-01-15T08:23:02.427Z,101.71
2024-01-15T08:24:02.422Z,101.82
2024-01-15T08:25:03.033Z,104.55
2024-01-15T08:26:02.326Z,99.14
2024-01-15T08:27:02.730Z,100.27
2024-01-15T08:28:02.334Z,101.17
2024-01-15T08:29:03.914Z,102.52
2024-01-15T08:30:02.978Z,100.15
2024-01-15T08:31:02.901Z,100.07
2024-01-15T08:32:02.451Z,100.26
2024-01-15T08:33:08.498Z,99.14
2024-01-15T08:34:03.504Z,99.22
2024-01-15T08:35:02.550Z,99.38
2024-01-15T08:36:02.389Z,98.19
2024-01-15T08:37:02.908Z,98.58
2024-01-15T08:38:02.401Z,98.72
2024-01-15T08:39:02.319Z,97.72
2024-01-15T08:40:02.393Z,97.10
2024-01-15T08:41:02.422Z,99.14
2024-01-15T08:42:02.360Z,99.39
2024-01-15T08:43:02.294Z,98.50
2024-01-15T08:44:03.348Z,98.14
2024-01-15T08:45:03.348Z,99.01
2024-01-15T08:46:03.512Z,97.86
2024-01-15T08:47:04.756Z,99.25
2024-01-15T08:48:02.484Z,97.21
2024-01-15T08:49:04.972Z,94.67
2024-01-15T08:50:02.436Z,94.73
2024-01-15T08:51:02.380Z,91.40
2024-01-15T08:52:02.897Z,90.95
2024-01-15T08:53:02.806Z,90.08
2024-01-15T08:54:02.623Z,97.10
2024-01-15T08:55:02.584Z,101.97
2024-01-15T08:56:02.434Z,107.96
2024-01-15T08:57:02.970Z,110.88
2024-01-15T08:58:03.446Z,110.58
2024-01-15T08:59:03.527Z,110.34
2024-01-15T09:00:05.265Z,108.11
2024-01-15T09:01:03.641Z,106.29
2024-01-15T09:02:02.862Z,103.41
2024-01-15T09:03:02.378Z,102.11
2024-01-15T09:04:05.235Z,100.08
2024-01-15T09:05:03.564Z,101.18
2024-01-15T09:06:02.498Z,98.96
2024-01-15T09:07:06.875Z,94.54
2024-01-15T09:08:02.509Z,93.39
2024-01-15T09:09:02.419Z,90.39
2024-01-15T09:10:03.896Z,89.41
2024-01-15T09:11:06.176Z,88.08
2024-01-15T09:12:04.902Z,88.83
2024-01-15T09:13:04.165Z,86.83
2024-01-15T09:14:02.488Z,88.56
2024-01-15T09:15:05.844Z,86.29
2024-01-15T09:16:02.734Z,86.96
2024-01-15T09:17:02.818Z,85.08
2024-01-15T09:18:05.442Z,81.93
2024-01-15T09:19:03.972Z,78.86
2024-01-15T09:20:07.984Z,80.69
2024-01-15T09:21:04.451Z,82.44
2024-01-15T09:22:05.479Z,81.60
2024-01-15T09:23:02.620Z,82.09
2024-01-15T09:24:02.623Z,77.36
2024-01-15T09:25:04.922Z,70.31
2024-01-15T09:26:02.651Z,65.34
2024-01-15T09:27:03.180Z,57.15
2024-01-15T09:28:02.571Z,53.36
2024-01-15T09:29:02.551Z,48.34
2024-01-15T09:30:02.622Z,46.42
2024-01-15T09:31:02.660Z,52.35
2024-01-15T09:32:02.642Z,51.31
2024-01-15T09:33:02.707Z,51.27
2024-01-15T09:34:02.692Z,53.55
2024-01-15T09:35:02.576Z,52.73
2024-01-15T09:36:02.893Z,52.76
2024-01-15T09:37:02.520Z,53.35
2024-01-15T09:38:02.535Z,50.00
2024-01-15T09:39:02.649Z,53.37
2024-01-15T09:40:02.635Z,53.87
2024-01-15T09:41:02.677Z,53.15
2024-01-15T09:42:04.492Z,50.19
2024-01-15T09:43:05.700Z,50.44
2024-01-15T09:44:02.605Z,50.48
2024-01-15T09:45:06.258Z,52.08
2024-01-15T09:46:02.774Z,52.14
2024-01-15T09:47:04.502Z,52.32
2024-01-15T09:48:02.663Z,52.56
2024-01-15T09:49:02.753Z,53.10
2024-01-15T09:50:02.619Z,52.46
2024-01-15T09:51:02.810Z,51.59
2024-01-15T09:52:06.391Z,50.31
2024-01-15T09:53:04.451Z,50.40
2024-01-15T09:54:02.623Z,50.42
2024-01-15T09:55:02.908Z,51.29
2024-01-15T09:56:05.374Z,52.07
2024-01-15T09:57:03.343Z,51.96
2024-01-15T09:58:02.672Z,51.00
2024-01-15T09:59:04.329Z,53.07
2024-01-15T10:00:03.738Z,54.65
2024-01-15T10:01:06.113Z,55.34
2024-01-15T10:02:03.639Z,55.38
2024-01-15T10:03:02.716Z,55.43
2024-01-15T10:04:03.125Z,56.52
2024-01-15T10:05:03.038Z,55.84
2024-01-15T10:06:02.674Z,58.38
2024-01-15T10:07:04.570Z,57.09
2024-01-15T10:08:02.605Z,60.84
2024-01-15T10:09:02.708Z,59.91
2024-01-15T10:10:03.676Z,61.29
2024-01-15T10:11:02.708Z,61.48
2024-01-15T10:12:02.944Z,60.50
2024-01-15T10:13:02.822Z,62.28
2024-01-15T10:14:03.276Z,64.81
2024-01-15T10:15:02.885Z,63.53
2024-01-15T10:16:02.721Z,65.02
2024-01-15T10:17:02.876Z,66.64
2024-01-15T10:18:02.924Z,67.43
2024-01-15T10:19:04.270Z,70.32
2024-01-15T10:20:02.975Z,73.63
2024-01-15T10:21:03.325Z,85.08
2024-01-15T10:22:03.856Z,95.01
2024-01-15T10:23:03.340Z,102.40
2024-01-15T10:24:03.024Z,105.02
2024-01-15T10:25:03.061Z,105.67
2024-01-15T10:26:03.099Z,104.87
2024-01-15T10:27:03.877Z,104.62
2024-01-15T10:28:04.096Z,104.21
2024-01-15T10:29:03.253Z,105.87
2024-01-15T10:30:03.382Z,103.59
2024-01-15T10:31:03.535Z,99.17
2024-01-15T10:32:03.556Z,98.53
2024-01-15T10:33:04.039Z,99.89
2024-01-15T10:34:03.711Z,97.93
2024-01-15T10:35:03.767Z,99.95
2024-01-15T10:36:03.735Z,100.03
2024-01-15T10:37:05.175Z,97.88
2024-01-15T10:38:05.559Z,97.90
2024-01-15T10:39:05.490Z,96.25
2024-01-15T10:40:04.029Z,98.25
2024-01-15T10:41:04.400Z,99.26
2024-01-15T10:42:04.003Z,98.69
2024-01-15T10:43:04.193Z,99.54
2024-01-15T10:44:04.283Z,98.65
2024-01-15T10:45:05.970Z,99.66
2024-01-15T10:46:04.530Z,99.52
2024-01-15T10:47:04.936Z,100.45
2024-01-15T10:48:04.766Z,99.38
2024-01-15T10:49:05.209Z,104.50
2024-01-15T10:50:08.650Z,102.92
2024-01-15T10:51:06.214Z,102.65
2024-01-15T10:52:05.455Z,103.04
2024-01-15T10:53:04.560Z,102.74
2024-01-15T10:54:04.510Z,101.95
2024-01-15T10:55:08.694Z,102.86
2024-01-15T10:56:05.486Z,102.96
2024-01-15T10:57:04.414Z,103.42
2024-01-15T10:58:04.474Z,103.26
2024-01-15T10:59:04.613Z,104.93
2024-01-15T11:00:05.572Z,106.79
2024-01-15T11:01:05.517Z,107.67
2024-01-15T11:02:06.371Z,108.54
2024-01-15T11:03:19.884Z,109.05
2024-01-15T11:04:05.411Z,109.24
2024-01-15T11:05:04.918Z,109.99
2024-01-15T11:06:04.494Z,110.74
2024-01-15T11:07:04.746Z,112.35
2024-01-15T11:08:04.752Z,114.28
2024-01-15T11:09:05.941Z,113.17
2024-01-15T11:10:05.087Z,110.71
2024-01-15T11:11:07.347Z,114.24
2024-01-15T11:12:04.587Z,113.99
2024-01-15T11:13:04.529Z,114.54
2024-01-15T11:14:04.430Z,110.85
2024-01-15T11:15:04.925Z,114.36
2024-01-15T11:16:04.866Z,112.65
2024-01-15T11:17:04.396Z,113.94
2024-01-15T11:18:05.518Z,113.72
2024-01-15T11:19:05.282Z,115.38
2024-01-15T11:20:05.708Z,115.44
2024-01-15T11:21:06.428Z,112.16
2024-01-15T11:22:04.619Z,112.34
2024-01-15T11:23:04.955Z,114.71
2024-01-15T11:24:05.909Z,113.53
2024-01-15T11:25:05.525Z,109.89
2024-01-15T11:26:04.969Z,111.48
2024-01-15T11:27:04.772Z,113.57
2024-01-15T11:28:04.958Z,111.38
2024-01-15T11:29:05.869Z,113.54
2024-01-15T11:30:05.144Z,110.76
2024-01-15T11:31:05.186Z,110.40
2024-01-15T11:32:05.074Z,119.52
2024-01-15T11:33:05.282Z,126.79
2024-01-15T11:34:05.450Z,126.94
2024-01-15T11:35:05.398Z,127.96
2024-01-15T11:36:05.371Z,129.09
2024-01-15T11:37:05.405Z,125.43
2024-01-15T11:38:05.915Z,123.08
2024-01-15T11:39:05.317Z,120.06
2024-01-15T11:40:05.553Z,115.67
2024-01-15T11:41:05.387Z,113.99
2024-01-15T11:42:06.568Z,112.90
2024-01-15T11:43:06.616Z,112.22
2024-01-15T11:44:07.711Z,108.09
2024-01-15T11:45:06.744Z,106.42
2024-01-15T11:46:05.673Z,106.84
2024-01-15T11:47:05.642Z,107.45
2024-01-15T11:48:05.777Z,105.73
2024-01-15T11:49:06.485Z,101.01
2024-01-15T11:50:05.952Z,97.29
2024-01-15T11:51:05.859Z,92.51
2024-01-15T11:52:05.867Z,89.93
2024-01-15T11:53:07.594Z,84.79
2024-01-15T11:54:05.895Z,80.59
2024-01-15T11:55:05.847Z,76.81
2024-01-15T11:56:06.004Z,74.97
2024-01-15T11:57:05.954Z,71.20
2024-01-15T11:58:05.908Z,66.61
2024-01-15T11:59:06.950Z,62.56
2024-01-15T12:00:06.023Z,58.26
2024-01-15T12:01:06.980Z,56.68
2024-01-15T12:02:06.145Z,50.50
2024-01-15T12:03:06.403Z,50.84
2024-01-15T12:04:06.253Z,50.27
2024-01-15T12:05:06.240Z,50.16
2024-01-15T12:06:06.296Z,50.73
2024-01-15T12:07:06.382Z,51.42
2024-01-15T12:08:06.890Z,52.73
2024-01-15T12:09:06.311Z,53.88
2024-01-15T12:10:06.331Z,52.63
2024-01-15T12:11:07.455Z,51.73
2024-01-15T12:12:06.463Z,52.96
2024-01-15T12:13:06.942Z,50.80
2024-01-15T12:14:06.535Z,51.75
2024-01-15T12:15:06.655Z,50.18
2024-01-15T12:16:06.989Z,51.18
2024-01-15T12:17:06.672Z,50.51
2024-01-15T12:18:06.722Z,51.54
2024-01-15T12:19:06.796Z,50.69
2024-01-15T12:20:06.664Z,53.47
2024-01-15T12:21:06.693Z,53.68
2024-01-15T12:22:06.696Z,51.07
2024-01-15T12:23:08.770Z,53.52
2024-01-15T12:24:06.987Z,53.56
2024-01-15T12:25:07.144Z,53.90
2024-01-15T12:26:06.945Z,58.25
2024-01-15T12:27:07.042Z,63.31
2024-01-15T12:28:07.119Z,63.30
2024-01-15T12:29:07.067Z,65.63
2024-01-15T12:30:07.126Z,65.96
2024-01-15T12:31:07.247Z,63.85
2024-01-15T12:32:07.164Z,66.55
2024-01-15T12:33:07.283Z,65.52
2024-01-15T12:34:07.361Z,61.12
2024-01-15T12:35:07.277Z,57.77
2024-01-15T12:36:07.300Z,55.91
2024-01-15T12:37:07.405Z,50.00
2024-01-15T12:38:07.529Z,50.00
2024-01-15T12:39:07.363Z,50.00
2024-01-15T12:40:07.418Z,50.38
2024-01-15T12:41:07.507Z,50.02
2024-01-15T12:42:07.495Z,50.00
2024-01-15T12:43:07.576Z,48.97
2024-01-15T12:44:07.556Z,50.81
2024-01-15T12:45:07.932Z,48.09
2024-01-15T12:46:07.707Z,51.42
2024-01-15T12:47:07.734Z,50.04
2024-01-15T12:48:08.187Z,50.00
2024-01-15T12:49:07.826Z,52.85